Time;durP1;ratioP1;P1;durP2;ratioP2;P2;SDS_P1;SDS_P2;PMS_P1;PMS_P2;Temp;Humidity;BMP_temperature;BMP_pressure;BME280_temperature;BME280_humidity;BME280_pressure;Samples;Min_cycle;Max_cycle;Signal;HPM_P1;HPM_P2
2022/08/08 00:00:11;;;;;;;;;;;22.60;48.30;;;;;;469868;253;1077;-73
2022/08/08 00:02:12;;;;;;;;;;;22.60;48.30;;;;;;478393;249;1255;-74
2022/08/08 00:04:14;;;;;;;;;;;22.60;48.20;;;;;;484115;246;982;-74
2022/08/08 00:06:15;;;;;;;;;;;22.50;48.30;;;;;;470340;253;1057;-74
2022/08/08 00:08:17;;;;;;;;;;;22.50;48.50;;;;;;469935;253;1096;-74
2022/08/08 00:10:18;;;;;;;;;;;22.30;48.70;;;;;;478402;249;1205;-74
2022/08/08 00:12:19;;;;;;;;;;;22.20;48.90;;;;;;484044;242;2184;-74
2022/08/08 00:14:21;;;;;;;;;;;22.20;49.10;;;;;;470300;253;991;-74
2022/08/08 00:16:22;;;;;;;;;;;22.20;49.20;;;;;;469905;253;1081;-74
2022/08/08 00:18:23;;;;;;;;;;;22.30;49.00;;;;;;478436;249;1157;-74
2022/08/08 00:20:25;;;;;;;;;;;22.30;48.70;;;;;;484141;246;1002;-74
2022/08/08 00:22:27;;;;;;;;;;;22.30;48.80;;;;;;470344;253;1063;-74
2022/08/08 00:24:28;;;;;;;;;;;22.20;48.90;;;;;;469840;253;999;-74
2022/08/08 00:26:29;;;;;;;;;;;22.10;49.10;;;;;;478382;249;1020;-74
2022/08/08 00:28:30;;;;;;;;;;;21.80;49.70;;;;;;484072;246;984;-74
2022/08/08 00:30:32;;;;;;;;;;;21.90;49.90;;;;;;470395;253;1067;-74
2022/08/08 00:32:33;;;;;;;;;;;21.90;49.90;;;;;;469824;253;2191;-74
2022/08/08 00:36:54;;;;;;;;;;;21.80;50.00;;;;;;470296;254;1246;-74
2022/08/08 00:38:55;;;;;;;;;;;21.80;49.80;;;;;;469818;253;1036;-73
2022/08/08 00:40:57;;;;;;;;;;;21.90;49.80;;;;;;484117;246;961;-73
2022/08/08 00:42:58;;;;;;;;;;;22.00;49.60;;;;;;470362;254;1048;-73
2022/08/08 00:44:59;;;;;;;;;;;22.10;49.40;;;;;;469936;253;1104;-74
2022/08/08 00:47:01;;;;;;;;;;;22.00;49.40;;;;;;478361;249;1224;-74
2022/08/08 00:49:02;;;;;;;;;;;21.90;49.60;;;;;;484199;246;1193;-74
2022/08/08 00:51:03;;;;;;;;;;;21.90;49.60;;;;;;470331;253;1131;-74
2022/08/08 00:53:05;;;;;;;;;;;21.90;49.50;;;;;;469906;253;2188;-74
2022/08/08 00:55:06;;;;;;;;;;;21.90;49.50;;;;;;484158;246;1187;-74
2022/08/08 00:57:07;;;;;;;;;;;22.00;49.40;;;;;;470344;253;1225;-74
2022/08/08 00:59:09;;;;;;;;;;;22.00;49.40;;;;;;470067;253;1186;-74
2022/08/08 01:01:10;;;;;;;;;;;22.10;49.30;;;;;;484223;246;1229;-74
2022/08/08 01:03:11;;;;;;;;;;;22.10;49.20;;;;;;470337;253;1177;-74
2022/08/08 01:05:13;;;;;;;;;;;22.10;49.00;;;;;;469865;253;1107;-74
2022/08/08 01:07:14;;;;;;;;;;;22.00;49.20;;;;;;478355;249;1274;-74
2022/08/08 01:09:15;;;;;;;;;;;22.00;49.30;;;;;;484150;246;1243;-74
2022/08/08 01:11:17;;;;;;;;;;;22.10;49.30;;;;;;470371;253;1244;-74
2022/08/08 01:13:18;;;;;;;;;;;22.20;49.00;;;;;;469925;253;2136;-74
2022/08/08 01:15:19;;;;;;;;;;;22.10;49.00;;;;;;478335;249;1268;-74
2022/08/08 01:17:21;;;;;;;;;;;22.20;49.00;;;;;;484122;246;1205;-73
2022/08/08 01:19:22;;;;;;;;;;;22.20;48.80;;;;;;470297;253;1211;-73
2022/08/08 01:21:24;;;;;;;;;;;22.40;48.60;;;;;;469808;253;1126;-73
2022/08/08 01:23:25;;;;;;;;;;;22.40;48.30;;;;;;478369;249;1246;-74
2022/08/08 01:25:26;;;;;;;;;;;22.40;48.40;;;;;;484113;246;1173;-74
2022/08/08 01:27:28;;;;;;;;;;;22.30;48.40;;;;;;470319;253;1092;-74
2022/08/08 01:29:29;;;;;;;;;;;22.30;48.50;;;;;;469865;253;1173;-74
2022/08/08 01:31:30;;;;;;;;;;;22.30;48.50;;;;;;478400;249;1113;-74
2022/08/08 01:33:32;;;;;;;;;;;22.20;48.60;;;;;;484151;246;2196;-74
2022/08/08 01:35:33;;;;;;;;;;;22.20;48.80;;;;;;470364;253;1133;-74
2022/08/08 01:37:35;;;;;;;;;;;22.10;49.00;;;;;;469872;253;1276;-74
2022/08/08 01:39:36;;;;;;;;;;;22.00;49.10;;;;;;478384;249;1080;-74
2022/08/08 01:41:37;;;;;;;;;;;22.00;49.10;;;;;;484119;246;1251;-74
2022/08/08 01:43:38;;;;;;;;;;;22.00;49.30;;;;;;470377;253;1212;-74
2022/08/08 01:45:40;;;;;;;;;;;21.90;49.30;;;;;;469833;253;1148;-74
2022/08/08 01:47:41;;;;;;;;;;;22.00;49.30;;;;;;478338;249;1232;-74
2022/08/08 01:49:43;;;;;;;;;;;22.00;49.20;;;;;;484120;246;1186;-74
2022/08/08 01:51:44;;;;;;;;;;;21.90;49.30;;;;;;470240;254;1385;-74
2022/08/08 01:53:45;;;;;;;;;;;22.00;49.40;;;;;;469835;253;2211;-74
2022/08/08 01:55:47;;;;;;;;;;;21.90;49.50;;;;;;484081;246;1182;-74
2022/08/08 01:57:48;;;;;;;;;;;21.90;49.50;;;;;;470281;254;1239;-74
2022/08/08 01:59:49;;;;;;;;;;;21.90;49.30;;;;;;469836;253;1212;-73
2022/08/08 02:01:51;;;;;;;;;;;21.90;49.40;;;;;;484121;246;1195;-73
2022/08/08 02:03:52;;;;;;;;;;;21.90;49.50;;;;;;470315;254;1141;-73
2022/08/08 02:05:53;;;;;;;;;;;21.90;49.30;;;;;;469879;253;1127;-74
2022/08/08 02:07:55;;;;;;;;;;;21.90;49.30;;;;;;478384;249;1182;-74
2022/08/08 02:09:56;;;;;;;;;;;21.90;49.50;;;;;;484135;246;1099;-74
2022/08/08 02:11:57;;;;;;;;;;;21.90;49.40;;;;;;470283;253;1332;-74
2022/08/08 02:13:59;;;;;;;;;;;21.80;49.60;;;;;;469877;253;2120;-74
2022/08/08 02:16:00;;;;;;;;;;;21.80;49.70;;;;;;484082;246;947;-74
2022/08/08 02:18:01;;;;;;;;;;;21.80;49.70;;;;;;470278;254;1069;-74
2022/08/08 02:20:03;;;;;;;;;;;21.80;49.60;;;;;;469809;253;1207;-74
2022/08/08 02:24:23;;;;;;;;;;;21.90;49.60;;;;;;484122;246;1135;-73
2022/08/08 02:26:25;;;;;;;;;;;21.80;49.50;;;;;;470312;245;1168;-73
2022/08/08 02:28:26;;;;;;;;;;;21.80;49.40;;;;;;469995;253;1287;-74
2022/08/08 02:30:27;;;;;;;;;;;21.80;49.60;;;;;;478416;249;1120;-74
2022/08/08 02:32:29;;;;;;;;;;;21.80;49.60;;;;;;484140;246;2204;-74
2022/08/08 02:34:30;;;;;;;;;;;21.80;49.70;;;;;;478367;249;1180;-74
2022/08/08 02:36:31;;;;;;;;;;;21.70;49.80;;;;;;484147;246;1241;-74
2022/08/08 02:38:33;;;;;;;;;;;21.70;49.80;;;;;;470374;253;1236;-74
2022/08/08 02:40:34;;;;;;;;;;;21.70;49.70;;;;;;469884;253;1133;-74
2022/08/08 02:42:35;;;;;;;;;;;21.70;49.70;;;;;;478365;249;1328;-74
2022/08/08 02:44:37;;;;;;;;;;;21.80;49.70;;;;;;484168;246;1140;-74
2022/08/08 02:46:38;;;;;;;;;;;21.80;49.50;;;;;;470327;253;1127;-74
2022/08/08 02:48:39;;;;;;;;;;;21.80;49.50;;;;;;469939;253;1151;-74
2022/08/08 02:50:41;;;;;;;;;;;21.80;49.60;;;;;;484143;246;1130;-74
2022/08/08 02:52:42;;;;;;;;;;;21.80;49.70;;;;;;470385;253;2132;-74
2022/08/08 02:54:43;;;;;;;;;;;21.80;49.70;;;;;;469929;253;1175;-74
2022/08/08 02:56:45;;;;;;;;;;;21.80;49.80;;;;;;478385;249;1172;-74
2022/08/08 02:58:46;;;;;;;;;;;21.80;49.60;;;;;;484136;246;1287;-74
2022/08/08 03:00:47;;;;;;;;;;;21.70;49.70;;;;;;470310;253;1114;-74
2022/08/08 03:02:49;;;;;;;;;;;21.70;49.60;;;;;;469940;253;1197;-74
2022/08/08 03:04:50;;;;;;;;;;;21.80;49.70;;;;;;478420;246;1211;-74
2022/08/08 03:06:51;;;;;;;;;;;21.80;49.70;;;;;;484112;246;1273;-73
2022/08/08 03:08:53;;;;;;;;;;;21.80;49.60;;;;;;470274;253;1183;-73
2022/08/08 03:10:54;;;;;;;;;;;21.80;49.70;;;;;;469873;253;1149;-73
2022/08/08 03:12:56;;;;;;;;;;;21.80;49.50;;;;;;484120;246;2215;-74
2022/08/08 03:14:57;;;;;;;;;;;21.90;49.40;;;;;;470358;254;1133;-74
2022/08/08 03:16:58;;;;;;;;;;;21.80;49.30;;;;;;469863;253;1308;-74
2022/08/08 03:19:00;;;;;;;;;;;21.80;49.40;;;;;;478392;249;1126;-74
2022/08/08 03:21:01;;;;;;;;;;;21.80;49.60;;;;;;484111;246;1245;-74
2022/08/08 03:23:02;;;;;;;;;;;21.80;49.50;;;;;;470322;253;1182;-74
2022/08/08 03:25:03;;;;;;;;;;;21.80;49.50;;;;;;469875;253;1180;-74
2022/08/08 03:27:05;;;;;;;;;;;21.80;49.40;;;;;;478333;249;1265;-74
2022/08/08 03:29:06;;;;;;;;;;;21.80;49.40;;;;;;484124;246;1180;-74
2022/08/08 03:33:28;;;;;;;;;;;21.80;49.40;;;;;;469810;254;2203;-74
2022/08/08 03:35:29;;;;;;;;;;;21.80;49.40;;;;;;478390;249;1156;-74
2022/08/08 03:37:31;;;;;;;;;;;21.80;49.50;;;;;;484080;246;1173;-74
2022/08/08 03:39:32;;;;;;;;;;;21.80;49.70;;;;;;470330;250;1115;-74
2022/08/08 03:41:33;;;;;;;;;;;21.80;49.60;;;;;;469895;253;1321;-74
2022/08/08 03:43:35;;;;;;;;;;;21.80;49.60;;;;;;478330;249;1070;-74
2022/08/08 03:45:36;;;;;;;;;;;21.70;49.70;;;;;;484095;246;971;-74
2022/08/08 03:47:37;;;;;;;;;;;21.70;49.60;;;;;;470312;253;1236;-74
2022/08/08 03:49:39;;;;;;;;;;;21.70;49.60;;;;;;469840;253;1181;-74
2022/08/08 03:51:40;;;;;;;;;;;21.70;49.60;;;;;;478258;249;1237;-74
2022/08/08 03:53:42;;;;;;;;;;;21.80;49.60;;;;;;484078;246;2140;-74
2022/08/08 03:55:43;;;;;;;;;;;21.90;49.40;;;;;;470254;253;982;-74
2022/08/08 03:57:44;;;;;;;;;;;21.90;49.30;;;;;;469790;253;1071;-74
2022/08/08 03:59:46;;;;;;;;;;;21.90;49.20;;;;;;484156;246;1142;-74
2022/08/08 04:01:47;;;;;;;;;;;21.90;49.00;;;;;;470264;245;1219;-74
2022/08/08 04:03:49;;;;;;;;;;;21.90;49.00;;;;;;469807;253;1066;-74
2022/08/08 04:05:50;;;;;;;;;;;21.90;49.00;;;;;;478288;249;1114;-74
2022/08/08 04:07:51;;;;;;;;;;;21.90;49.20;;;;;;484096;246;1110;-74
2022/08/08 04:09:53;;;;;;;;;;;21.80;49.30;;;;;;470306;253;1049;-74
2022/08/08 04:11:54;;;;;;;;;;;21.80;49.40;;;;;;469883;253;1091;-74
2022/08/08 04:13:55;;;;;;;;;;;21.80;49.30;;;;;;484039;246;2188;-74
2022/08/08 04:15:57;;;;;;;;;;;21.80;49.40;;;;;;470254;254;1099;-74
2022/08/08 04:17:58;;;;;;;;;;;21.70;49.40;;;;;;469829;253;1221;-74
2022/08/08 04:19:59;;;;;;;;;;;21.80;49.40;;;;;;483927;246;1153;-74
2022/08/08 04:22:01;;;;;;;;;;;21.70;49.50;;;;;;470132;254;1179;-74
2022/08/08 04:24:02;;;;;;;;;;;21.70;49.50;;;;;;469742;253;1100;-74
2022/08/08 04:26:03;;;;;;;;;;;21.80;49.50;;;;;;483914;246;1125;-73
2022/08/08 04:28:05;;;;;;;;;;;21.80;49.30;;;;;;470217;253;1175;-73
2022/08/08 04:30:06;;;;;;;;;;;21.70;49.60;;;;;;469742;253;1070;-73
2022/08/08 04:32:08;;;;;;;;;;;21.60;49.60;;;;;;478258;249;1141;-74
2022/08/08 04:34:09;;;;;;;;;;;21.70;49.50;;;;;;483993;246;2244;-73
2022/08/08 04:36:10;;;;;;;;;;;21.70;49.50;;;;;;470163;253;1266;-73
2022/08/08 04:38:11;;;;;;;;;;;21.80;49.40;;;;;;469710;253;1140;-73
2022/08/08 04:40:13;;;;;;;;;;;21.80;49.40;;;;;;483962;246;1155;-73
2022/08/08 04:42:14;;;;;;;;;;;21.90;49.10;;;;;;470138;253;1182;-73
2022/08/08 04:44:16;;;;;;;;;;;21.90;49.00;;;;;;469668;253;1095;-73
2022/08/08 04:46:17;;;;;;;;;;;21.90;49.00;;;;;;478213;249;1103;-73
2022/08/08 04:48:18;;;;;;;;;;;21.90;49.20;;;;;;484008;246;1096;-73
2022/08/08 04:50:20;;;;;;;;;;;21.80;49.10;;;;;;470110;253;1211;-73
2022/08/08 04:52:21;;;;;;;;;;;21.90;49.10;;;;;;469626;253;1091;-73
2022/08/08 04:54:22;;;;;;;;;;;22.00;49.00;;;;;;483908;246;2192;-73
2022/08/08 04:56:24;;;;;;;;;;;22.00;48.80;;;;;;470071;253;1118;-73
2022/08/08 04:58:25;;;;;;;;;;;22.00;48.80;;;;;;469630;253;1070;-73
2022/08/08 05:00:26;;;;;;;;;;;22.10;48.60;;;;;;483804;246;1076;-73
2022/08/08 05:02:28;;;;;;;;;;;22.20;48.50;;;;;;470090;253;1108;-73
2022/08/08 05:04:29;;;;;;;;;;;22.30;48.30;;;;;;469640;253;1062;-74
2022/08/08 05:06:30;;;;;;;;;;;22.40;48.10;;;;;;483836;246;1192;-74
2022/08/08 05:08:32;;;;;;;;;;;22.30;48.00;;;;;;470097;254;1024;-74
2022/08/08 05:10:33;;;;;;;;;;;22.40;48.00;;;;;;469637;253;960;-74
2022/08/08 05:12:34;;;;;;;;;;;22.40;47.90;;;;;;478198;249;1045;-74
2022/08/08 05:14:36;;;;;;;;;;;22.50;47.80;;;;;;483993;246;2184;-74
2022/08/08 05:16:37;;;;;;;;;;;22.50;47.70;;;;;;470171;253;1110;-73
2022/08/08 05:18:38;;;;;;;;;;;22.50;47.60;;;;;;469713;253;1027;-73
2022/08/08 05:20:40;;;;;;;;;;;22.40;47.70;;;;;;478234;245;1212;-73
2022/08/08 05:22:41;;;;;;;;;;;22.50;47.90;;;;;;483905;246;1060;-73
2022/08/08 05:24:42;;;;;;;;;;;22.50;47.80;;;;;;469986;253;1277;-73
2022/08/08 05:26:45;;;;;;;;;;;22.50;47.80;;;;;;469490;253;1089;-73
2022/08/08 05:28:46;;;;;;;;;;;22.40;47.90;;;;;;477924;249;1222;-73
2022/08/08 05:30:47;;;;;;;;;;;22.40;48.00;;;;;;483689;246;1035;-73
2022/08/08 05:32:48;;;;;;;;;;;22.40;47.90;;;;;;470045;253;1047;-73
2022/08/08 05:34:50;;;;;;;;;;;22.40;47.90;;;;;;469607;253;2195;-73
2022/08/08 05:36:51;;;;;;;;;;;22.40;47.90;;;;;;478140;249;1189;-73
2022/08/08 05:38:52;;;;;;;;;;;22.40;48.00;;;;;;483867;246;974;-74
2022/08/08 05:40:54;;;;;;;;;;;22.40;48.00;;;;;;470096;253;1214;-74
2022/08/08 05:42:55;;;;;;;;;;;22.40;48.10;;;;;;469590;253;1189;-74
2022/08/08 05:44:56;;;;;;;;;;;22.40;48.00;;;;;;483816;246;1262;-74
2022/08/08 05:46:58;;;;;;;;;;;22.40;48.00;;;;;;470034;253;1111;-74
2022/08/08 05:48:59;;;;;;;;;;;22.40;48.00;;;;;;469501;253;1167;-74
2022/08/08 05:51:00;;;;;;;;;;;22.20;48.20;;;;;;483727;246;1268;-74
2022/08/08 05:53:02;;;;;;;;;;;22.20;48.40;;;;;;470049;254;1087;-74
2022/08/08 05:55:03;;;;;;;;;;;22.00;48.60;;;;;;469597;253;2210;-74
2022/08/08 05:57:04;;;;;;;;;;;22.00;48.90;;;;;;478100;249;1146;-74
2022/08/08 05:59:06;;;;;;;;;;;21.90;49.10;;;;;;483821;246;1213;-74
2022/08/08 06:01:07;;;;;;;;;;;21.90;49.10;;;;;;470003;253;1247;-73
2022/08/08 06:03:12;;;;;;;;;;;22.00;48.80;;;;;;469428;253;1210;-73
2022/08/08 06:05:14;;;;;;;;;;;22.10;48.70;;;;;;477842;249;1189;-74
2022/08/08 06:07:14;;;;;;;;;;;22.10;48.70;;;;;;483571;246;1381;-73
2022/08/08 06:09:15;;;;;;;;;;;22.30;48.50;;;;;;469872;253;1231;-73
2022/08/08 06:11:18;;;;;;;;;;;22.30;48.20;;;;;;469329;253;1123;-73
2022/08/08 06:13:18;;;;;;;;;;;22.30;48.30;;;;;;477914;249;1401;-73
2022/08/08 06:15:20;;;;;;;;;;;22.20;48.50;;;;;;483725;246;2105;-73
2022/08/08 06:17:21;;;;;;;;;;;22.30;48.30;;;;;;469900;253;1076;-73
2022/08/08 06:19:22;;;;;;;;;;;22.40;48.10;;;;;;469422;253;1172;-73
2022/08/08 06:21:23;;;;;;;;;;;22.50;47.80;;;;;;483627;246;1106;-73
2022/08/08 06:23:26;;;;;;;;;;;22.50;47.80;;;;;;478032;249;1097;-73
2022/08/08 06:25:27;;;;;;;;;;;22.60;47.70;;;;;;483713;246;1199;-73
2022/08/08 06:27:28;;;;;;;;;;;22.60;47.70;;;;;;469892;253;1310;-73
2022/08/08 06:29:30;;;;;;;;;;;22.60;47.50;;;;;;469322;253;1232;-73
2022/08/08 06:31:31;;;;;;;;;;;22.60;47.40;;;;;;477788;249;1219;-73
2022/08/08 06:33:32;;;;;;;;;;;22.60;47.40;;;;;;483688;246;1120;-73
2022/08/08 06:35:34;;;;;;;;;;;22.60;47.50;;;;;;469880;253;2199;-73
2022/08/08 06:37:35;;;;;;;;;;;22.60;47.60;;;;;;477892;249;1154;-73
2022/08/08 06:39:36;;;;;;;;;;;22.60;47.60;;;;;;477936;249;1199;-73
2022/08/08 06:41:38;;;;;;;;;;;22.70;47.60;;;;;;483576;246;1094;-73
2022/08/08 06:43:39;;;;;;;;;;;22.70;47.40;;;;;;469727;250;1514;-73
2022/08/08 06:45:40;;;;;;;;;;;22.70;47.40;;;;;;469170;253;1126;-73
2022/08/08 06:47:42;;;;;;;;;;;22.70;47.40;;;;;;483470;246;1209;-73
2022/08/08 06:49:45;;;;;;;;;;;22.80;47.30;;;;;;469730;254;1261;-73
2022/08/08 06:51:44;;;;;;;;;;;22.70;47.20;;;;;;468873;254;1396;-73
2022/08/08 06:53:46;;;;;;;;;;;22.70;47.30;;;;;;477652;249;2198;-73
2022/08/08 06:55:47;;;;;;;;;;;22.70;47.30;;;;;;483486;246;1218;-73
2022/08/08 06:57:48;;;;;;;;;;;22.70;47.40;;;;;;469715;253;1198;-73
2022/08/08 06:59:50;;;;;;;;;;;22.70;47.50;;;;;;469205;253;1260;-73
2022/08/08 07:01:51;;;;;;;;;;;22.70;47.50;;;;;;477770;249;1065;-73
2022/08/08 07:03:52;;;;;;;;;;;22.60;47.70;;;;;;483353;246;1089;-73
2022/08/08 07:05:54;;;;;;;;;;;22.60;47.90;;;;;;469646;253;1116;-73
2022/08/08 07:07:55;;;;;;;;;;;22.60;47.80;;;;;;469135;253;1714;-73
2022/08/08 07:09:56;;;;;;;;;;;22.60;47.70;;;;;;483411;246;1196;-73
2022/08/08 07:11:58;;;;;;;;;;;22.70;47.70;;;;;;469635;254;1185;-73
2022/08/08 07:13:59;;;;;;;;;;;22.70;47.70;;;;;;469161;253;2184;-73
2022/08/08 07:16:01;;;;;;;;;;;22.70;47.70;;;;;;477815;249;1330;-73
2022/08/08 07:18:02;;;;;;;;;;;22.70;47.60;;;;;;483564;246;1133;-73
2022/08/08 07:20:04;;;;;;;;;;;22.60;47.80;;;;;;469650;253;1170;-73
2022/08/08 07:22:05;;;;;;;;;;;22.60;47.90;;;;;;469185;253;1262;-73
2022/08/08 07:24:06;;;;;;;;;;;22.60;47.90;;;;;;483119;246;1126;-73
2022/08/08 07:26:08;;;;;;;;;;;22.60;47.90;;;;;;469521;254;1098;-73
2022/08/08 07:28:09;;;;;;;;;;;22.60;47.70;;;;;;469296;253;1103;-73
2022/08/08 07:30:10;;;;;;;;;;;22.70;47.70;;;;;;483476;246;1101;-73
2022/08/08 07:32:12;;;;;;;;;;;22.60;47.70;;;;;;469655;254;1202;-73
2022/08/08 07:34:13;;;;;;;;;;;22.60;47.80;;;;;;469137;253;2212;-74
2022/08/08 07:36:14;;;;;;;;;;;22.60;47.90;;;;;;483402;246;1114;-73
2022/08/08 07:38:16;;;;;;;;;;;22.60;48.00;;;;;;469685;253;1194;-73
2022/08/08 07:40:17;;;;;;;;;;;22.60;48.20;;;;;;469210;253;1233;-73
2022/08/08 07:42:18;;;;;;;;;;;22.70;48.40;;;;;;483474;246;1278;-73
2022/08/08 07:44:20;;;;;;;;;;;22.70;48.40;;;;;;469700;253;1138;-73
2022/08/08 07:46:21;;;;;;;;;;;22.80;48.60;;;;;;469122;253;1198;-73
2022/08/08 07:48:22;;;;;;;;;;;22.90;48.50;;;;;;477745;249;1148;-73
2022/08/08 07:50:24;;;;;;;;;;;23.00;48.70;;;;;;483440;246;1198;-73
2022/08/08 07:52:25;;;;;;;;;;;23.00;48.70;;;;;;469582;246;1167;-73
2022/08/08 07:54:26;;;;;;;;;;;23.10;48.80;;;;;;469016;253;2199;-73
2022/08/08 07:56:28;;;;;;;;;;;23.20;49.10;;;;;;477511;249;1147;-73
2022/08/08 07:58:29;;;;;;;;;;;23.10;49.00;;;;;;483208;246;1280;-73
2022/08/08 08:00:30;;;;;;;;;;;23.20;49.10;;;;;;469389;253;1106;-73
2022/08/08 08:02:32;;;;;;;;;;;23.20;49.00;;;;;;468900;253;1190;-73
2022/08/08 08:04:33;;;;;;;;;;;23.30;48.90;;;;;;477504;249;1116;-73
2022/08/08 08:06:34;;;;;;;;;;;23.30;48.90;;;;;;483216;246;1110;-74
2022/08/08 08:08:36;;;;;;;;;;;23.20;48.80;;;;;;469770;253;1138;-73
2022/08/08 08:10:37;;;;;;;;;;;23.20;48.80;;;;;;469182;253;1262;-73
2022/08/08 08:12:38;;;;;;;;;;;23.20;48.70;;;;;;483457;246;1073;-73
2022/08/08 08:14:40;;;;;;;;;;;23.20;48.70;;;;;;469691;253;2203;-73
2022/08/08 08:16:42;;;;;;;;;;;23.20;48.70;;;;;;469192;253;1209;-73
2022/08/08 08:18:42;;;;;;;;;;;23.10;48.70;;;;;;483449;246;1336;-73
2022/08/08 08:20:44;;;;;;;;;;;23.10;48.70;;;;;;469682;254;1175;-73
2022/08/08 08:22:45;;;;;;;;;;;23.10;48.70;;;;;;469130;253;1157;-73
2022/08/08 08:24:47;;;;;;;;;;;23.00;48.80;;;;;;483406;246;1037;-75
2022/08/08 08:26:48;;;;;;;;;;;22.90;48.90;;;;;;469624;254;1056;-74
2022/08/08 08:28:49;;;;;;;;;;;22.80;48.90;;;;;;469142;253;1056;-74
2022/08/08 08:30:51;;;;;;;;;;;22.80;49.00;;;;;;477560;249;1138;-74
2022/08/08 08:32:52;;;;;;;;;;;22.80;48.90;;;;;;483287;246;1046;-74
2022/08/08 08:34:53;;;;;;;;;;;22.70;48.90;;;;;;469405;253;2198;-74
2022/08/08 08:36:55;;;;;;;;;;;22.80;48.90;;;;;;477477;249;1107;-74
2022/08/08 08:38:56;;;;;;;;;;;22.80;48.80;;;;;;469589;253;1268;-74
2022/08/08 08:40:57;;;;;;;;;;;22.80;48.70;;;;;;483408;246;1055;-73
2022/08/08 08:42:59;;;;;;;;;;;22.90;48.70;;;;;;469538;253;1255;-74
2022/08/08 08:45:00;;;;;;;;;;;22.80;48.60;;;;;;469114;253;1249;-74
2022/08/08 08:47:01;;;;;;;;;;;22.80;48.80;;;;;;477599;249;1367;-74
2022/08/08 08:49:03;;;;;;;;;;;22.80;49.00;;;;;;483086;246;1117;-74
2022/08/08 08:51:04;;;;;;;;;;;22.80;49.10;;;;;;469367;253;1241;-74
2022/08/08 08:53:06;;;;;;;;;;;22.90;49.10;;;;;;468899;253;1312;-74
2022/08/08 08:55:07;;;;;;;;;;;23.00;48.90;;;;;;483145;246;2135;-74
2022/08/08 08:57:08;;;;;;;;;;;23.00;48.90;;;;;;469305;254;1151;-74
2022/08/08 08:59:09;;;;;;;;;;;23.00;48.80;;;;;;468980;253;1190;-73
2022/08/08 09:01:11;;;;;;;;;;;23.10;48.70;;;;;;483185;246;1156;-74
2022/08/08 09:03:12;;;;;;;;;;;23.10;48.80;;;;;;469480;253;1072;-74
2022/08/08 09:05:13;;;;;;;;;;;23.10;48.80;;;;;;468917;253;1117;-74
2022/08/08 09:07:15;;;;;;;;;;;23.10;48.90;;;;;;483141;246;1154;-74
2022/08/08 09:09:16;;;;;;;;;;;23.10;48.80;;;;;;469511;253;1130;-74
2022/08/08 09:11:17;;;;;;;;;;;23.20;48.50;;;;;;468983;253;1202;-74
2022/08/08 09:13:20;;;;;;;;;;;23.20;48.40;;;;;;477546;249;1094;-73
2022/08/08 09:15:20;;;;;;;;;;;23.20;48.40;;;;;;483310;245;2191;-73
2022/08/08 09:17:23;;;;;;;;;;;23.10;48.50;;;;;;469573;253;1157;-73
2022/08/08 09:19:24;;;;;;;;;;;23.10;48.60;;;;;;469119;253;1203;-73
2022/08/08 09:21:25;;;;;;;;;;;23.00;48.90;;;;;;477647;249;1210;-73
2022/08/08 09:23:27;;;;;;;;;;;23.00;48.90;;;;;;483213;246;1151;-73
2022/08/08 09:25:28;;;;;;;;;;;23.00;49.00;;;;;;469468;253;1181;-74
2022/08/08 09:27:29;;;;;;;;;;;23.00;48.80;;;;;;468928;253;1195;-74
2022/08/08 09:29:31;;;;;;;;;;;23.00;48.80;;;;;;477424;249;1066;-74
2022/08/08 09:31:33;;;;;;;;;;;23.10;48.90;;;;;;483235;246;1124;-73
2022/08/08 09:33:34;;;;;;;;;;;23.10;48.80;;;;;;469551;253;1226;-73
2022/08/08 09:35:35;;;;;;;;;;;23.00;48.80;;;;;;468975;253;2203;-73
2022/08/08 09:37:36;;;;;;;;;;;23.00;49.00;;;;;;477567;249;1150;-73
2022/08/08 09:39:39;;;;;;;;;;;23.00;49.20;;;;;;483344;246;1175;-73
2022/08/08 09:41:39;;;;;;;;;;;23.00;49.20;;;;;;469493;253;1417;-73
2022/08/08 09:43:41;;;;;;;;;;;23.00;49.10;;;;;;477522;249;1155;-73
2022/08/08 09:45:42;;;;;;;;;;;23.10;49.10;;;;;;483443;246;1110;-74
2022/08/08 09:47:44;;;;;;;;;;;23.10;48.90;;;;;;469688;253;1084;-74
2022/08/08 09:49:45;;;;;;;;;;;23.00;49.00;;;;;;469334;253;1281;-73
2022/08/08 09:51:46;;;;;;;;;;;23.00;49.10;;;;;;477738;249;1241;-74
2022/08/08 09:53:48;;;;;;;;;;;23.00;49.20;;;;;;483351;246;1212;-73
2022/08/08 09:55:49;;;;;;;;;;;23.00;49.30;;;;;;469571;253;2202;-74
2022/08/08 09:57:50;;;;;;;;;;;23.10;49.00;;;;;;469198;253;1054;-74
2022/08/08 09:59:52;;;;;;;;;;;23.10;48.90;;;;;;483545;246;1170;-73
2022/08/08 10:01:53;;;;;;;;;;;23.20;48.70;;;;;;469648;254;1234;-73
2022/08/08 10:03:54;;;;;;;;;;;23.20;48.70;;;;;;469007;253;1165;-73
2022/08/08 10:05:56;;;;;;;;;;;23.20;48.80;;;;;;483137;246;1114;-73
2022/08/08 10:07:57;;;;;;;;;;;23.20;48.70;;;;;;469506;253;1119;-74
2022/08/08 10:09:59;;;;;;;;;;;23.20;48.70;;;;;;469087;253;1161;-73
2022/08/08 10:12:00;;;;;;;;;;;23.30;48.60;;;;;;483278;246;1148;-73
2022/08/08 10:14:01;;;;;;;;;;;23.30;48.50;;;;;;469630;253;1141;-73
2022/08/08 10:16:03;;;;;;;;;;;23.40;48.40;;;;;;469172;253;2203;-73
2022/08/08 10:18:04;;;;;;;;;;;23.40;48.40;;;;;;477782;249;1117;-73
2022/08/08 10:20:05;;;;;;;;;;;23.30;48.30;;;;;;483454;246;1143;-73
2022/08/08 10:22:07;;;;;;;;;;;23.20;48.60;;;;;;469743;245;1409;-73
2022/08/08 10:24:08;;;;;;;;;;;23.20;48.70;;;;;;469050;253;1173;-73
2022/08/08 10:26:09;;;;;;;;;;;23.20;48.60;;;;;;477543;249;1055;-73
2022/08/08 10:28:11;;;;;;;;;;;23.20;48.50;;;;;;483404;246;1077;-73
2022/08/08 10:30:12;;;;;;;;;;;23.30;48.40;;;;;;477630;249;1397;-73
2022/08/08 10:32:31;;;;;;;;;;;23.20;48.30;;;;;;483479;246;1209;-73
2022/08/08 10:34:33;;;;;;;;;;;23.20;48.20;;;;;;477787;249;1088;-73
2022/08/08 10:36:34;;;;;;;;;;;23.10;48.40;;;;;;483475;245;2184;-73
2022/08/08 10:38:36;;;;;;;;;;;23.10;48.50;;;;;;469661;253;1140;-73
2022/08/08 10:40:37;;;;;;;;;;;23.10;48.60;;;;;;469189;253;1526;-73
2022/08/08 10:42:38;;;;;;;;;;;23.10;48.70;;;;;;477654;249;1195;-73
2022/08/08 10:44:39;;;;;;;;;;;23.10;48.60;;;;;;483219;246;1058;-73
2022/08/08 10:46:41;;;;;;;;;;;23.10;48.60;;;;;;469458;253;1271;-73
2022/08/08 10:48:42;;;;;;;;;;;23.10;48.70;;;;;;469142;253;1047;-73
2022/08/08 10:50:43;;;;;;;;;;;23.10;48.60;;;;;;477619;249;1207;-73
2022/08/08 10:52:45;;;;;;;;;;;23.10;48.50;;;;;;483337;246;1169;-73
2022/08/08 10:54:46;;;;;;;;;;;23.10;48.60;;;;;;468669;253;1206;-73
2022/08/08 10:56:47;;;;;;;;;;;23.10;48.60;;;;;;468971;253;2188;-73
2022/08/08 10:58:49;;;;;;;;;;;23.10;48.60;;;;;;483368;246;1069;-73
2022/08/08 11:00:50;;;;;;;;;;;23.10;48.60;;;;;;469542;253;1268;-73
2022/08/08 11:02:51;;;;;;;;;;;23.20;48.50;;;;;;469203;253;1152;-73
2022/08/08 11:04:53;;;;;;;;;;;23.10;48.40;;;;;;483424;246;1103;-73
2022/08/08 11:06:54;;;;;;;;;;;23.10;48.40;;;;;;469695;253;1446;-73
2022/08/08 11:08:55;;;;;;;;;;;23.10;48.50;;;;;;469126;253;1114;-73
2022/08/08 11:10:57;;;;;;;;;;;23.10;48.50;;;;;;483397;246;1251;-73
2022/08/08 11:12:59;;;;;;;;;;;23.20;48.40;;;;;;469573;253;1282;-74
2022/08/08 11:15:00;;;;;;;;;;;23.20;48.40;;;;;;468859;253;1270;-74
2022/08/08 11:17:01;;;;;;;;;;;23.20;48.30;;;;;;477323;249;2219;-74
2022/08/08 11:19:03;;;;;;;;;;;23.20;48.30;;;;;;483422;246;1285;-74
2022/08/08 11:21:04;;;;;;;;;;;23.20;48.30;;;;;;483470;246;1066;-74
2022/08/08 11:23:05;;;;;;;;;;;23.10;48.40;;;;;;469624;253;1068;-74
2022/08/08 11:25:07;;;;;;;;;;;23.10;48.50;;;;;;469154;253;1199;-74
2022/08/08 11:27:08;;;;;;;;;;;23.10;48.40;;;;;;477752;249;1050;-73
2022/08/08 11:29:10;;;;;;;;;;;23.20;48.30;;;;;;483400;246;979;-73
2022/08/08 11:31:11;;;;;;;;;;;23.30;48.10;;;;;;469692;253;1054;-74
2022/08/08 11:33:12;;;;;;;;;;;23.30;47.90;;;;;;469208;253;1073;-74
2022/08/08 11:35:14;;;;;;;;;;;23.30;47.80;;;;;;477659;249;1007;-74
2022/08/08 11:37:16;;;;;;;;;;;23.30;47.80;;;;;;483436;246;2176;-74
2022/08/08 11:39:16;;;;;;;;;;;23.30;47.80;;;;;;469652;253;1519;-74
2022/08/08 11:41:18;;;;;;;;;;;23.30;47.80;;;;;;469183;253;1290;-74
2022/08/08 11:43:19;;;;;;;;;;;23.30;47.80;;;;;;477709;249;1256;-74
2022/08/08 11:45:20;;;;;;;;;;;23.30;47.70;;;;;;482968;246;1195;-74
2022/08/08 11:47:22;;;;;;;;;;;23.30;47.70;;;;;;469477;253;1080;-74
2022/08/08 11:49:24;;;;;;;;;;;23.40;47.70;;;;;;469100;253;1230;-74
2022/08/08 11:51:25;;;;;;;;;;;23.30;47.60;;;;;;483336;246;1188;-74
2022/08/08 11:53:27;;;;;;;;;;;23.40;47.60;;;;;;469511;253;1148;-74
2022/08/08 11:55:28;;;;;;;;;;;23.30;47.70;;;;;;469093;253;1151;-74
2022/08/08 11:57:32;;;;;;;;;;;23.30;47.70;;;;;;477559;249;2194;-74
2022/08/08 11:59:31;;;;;;;;;;;23.30;47.70;;;;;;483177;246;1447;-74
2022/08/08 12:01:32;;;;;;;;;;;23.30;47.90;;;;;;469322;253;1168;-74
2022/08/08 12:03:33;;;;;;;;;;;23.20;48.00;;;;;;468818;253;1210;-74